Wijdenes, Netherlands

1:18 PM CET on December 26, 2014 (GMT +0100)
Venhuizen | Change Station
CLOSE
Current Station
Personal Weather Station
Location: Venhuizen, Noord Holland
Elevation: 0 ft
Nearby Weather Stations

Elev 0 ft 52.67 °N, 5.20 °E | Updated 1 minute ago

Clear
Clear
42.3 °F
Feels Like 42 °F
N
0.0
Wind Variable Wind from NE
Gusts 3.0 mph

Today
High -- | Low -- °F
--% Chance of Precip.
Yesterday
High -- | Low -- °F
Precip. -- in
8:50 AM 4:29 PM
Waxing Crescent, 25% visible
Pressure 30.33 in
Visibility 6.2 miles
Clouds
Windchill 42 °F
Dew Point 38 °F
Humidity 85%
Rainfall 0.00 in
Snow Depth Not available.
UV Not available.
Pollen Not available.
Air Quality Not available.
Flu Activity Not available.
METAR EHKD 261155Z AUTO 19002KT 9999 NCD 06/03 Q1027 BLU

More Conditions Fewer Conditions

Pressure 30.33 in
Visibility 6.2 miles
Clouds
Windchill 42 °F
Dew Point 38 °F
Humidity 85%
Rainfall 0.00 in
Snow Depth Not available.
UV Not available.
Pollen Not available.
Air Quality Not available.
Flu Activity Not available.
METAR EHKD 261155Z AUTO 19002KT 9999 NCD 06/03 Q1027 BLU

More Conditions Fewer Conditions

10-Day Weather Forecast

Almanac

Astronomy

Dec. 26, 2014 Rise Set
Actual Time
Civil Twilight
Nautical Twilight
Astronomical Twilight
Moon
Length of Visible Light
Length of Day
Tomorrow will be .
, % of the Moon is Illuminated

Today's Extremes

Country Highs Country Lows

Community

WunderPhotos

Upload Photos

1,780,584 photos uploaded!

WunderBlogs® & News

Nearby

Air Quality

  Air Quality AQ Index Pollutant
Not available.

Snow Depth

Station Depth Elevation

Earthquake Activity

City Distance Mag. Time & Date
Minimum magnitude displayed is 2.5.

Coastal Water Temperatures

Place Temperature

Nearby Weather Stations